sensor_id;sensor_type;location;lat;lon;timestamp;P1;durP1;ratioP1;P2;durP2;ratioP2
41061;SDS011;26812;42.662;23.352;2022-08-01T00:02:26;3.17;;;2.88;;
41061;SDS011;26812;42.662;23.352;2022-08-01T00:04:53;3.03;;;2.70;;
41061;SDS011;26812;42.662;23.352;2022-08-01T00:07:19;4.80;;;3.10;;
41061;SDS011;26812;42.662;23.352;2022-08-01T00:09:44;2.60;;;2.40;;
41061;SDS011;26812;42.662;23.352;2022-08-01T00:12:10;3.25;;;2.95;;
41061;SDS011;26812;42.662;23.352;2022-08-01T00:14:35;4.25;;;3.00;;
41061;SDS011;26812;42.662;23.352;2022-08-01T00:17:00;3.33;;;3.03;;
41061;SDS011;26812;42.662;23.352;2022-08-01T00:19:26;2.95;;;2.75;;
41061;SDS011;26812;42.662;23.352;2022-08-01T00:21:51;3.63;;;2.60;;
41061;SDS011;26812;42.662;23.352;2022-08-01T00:24:17;2.72;;;2.50;;
41061;SDS011;26812;42.662;23.352;2022-08-01T00:26:42;3.55;;;2.70;;
41061;SDS011;26812;42.662;23.352;2022-08-01T00:29:07;2.80;;;2.50;;
41061;SDS011;26812;42.662;23.352;2022-08-01T00:31:33;3.42;;;2.58;;
41061;SDS011;26812;42.662;23.352;2022-08-01T00:33:58;3.22;;;2.60;;
41061;SDS011;26812;42.662;23.352;2022-08-01T00:36:23;3.22;;;3.03;;
41061;SDS011;26812;42.662;23.352;2022-08-01T00:38:49;6.15;;;4.38;;
41061;SDS011;26812;42.662;23.352;2022-08-01T00:41:14;5.28;;;4.75;;
41061;SDS011;26812;42.662;23.352;2022-08-01T00:43:40;5.05;;;4.50;;
41061;SDS011;26812;42.662;23.352;2022-08-01T00:46:05;6.05;;;5.45;;
41061;SDS011;26812;42.662;23.352;2022-08-01T00:48:30;6.32;;;5.72;;
41061;SDS011;26812;42.662;23.352;2022-08-01T00:50:56;5.75;;;5.22;;
41061;SDS011;26812;42.662;23.352;2022-08-01T00:53:21;5.60;;;5.20;;
41061;SDS011;26812;42.662;23.352;2022-08-01T00:55:47;5.88;;;5.45;;
41061;SDS011;26812;42.662;23.352;2022-08-01T00:58:13;5.45;;;5.05;;
41061;SDS011;26812;42.662;23.352;2022-08-01T01:00:38;5.72;;;5.10;;
41061;SDS011;26812;42.662;23.352;2022-08-01T01:03:05;6.20;;;4.88;;
41061;SDS011;26812;42.662;23.352;2022-08-01T01:05:32;6.35;;;5.60;;
41061;SDS011;26812;42.662;23.352;2022-08-01T01:08:08;6.90;;;5.43;;
41061;SDS011;26812;42.662;23.352;2022-08-01T01:10:57;6.00;;;5.40;;
41061;SDS011;26812;42.662;23.352;2022-08-01T01:13:49;6.30;;;5.70;;
41061;SDS011;26812;42.662;23.352;2022-08-01T01:16:19;6.30;;;5.80;;
41061;SDS011;26812;42.662;23.352;2022-08-01T01:18:54;5.57;;;4.97;;
41061;SDS011;26812;42.662;23.352;2022-08-01T01:27:10;4.95;;;4.57;;
41061;SDS011;26812;42.662;23.352;2022-08-01T01:29:51;5.32;;;4.93;;
41061;SDS011;26812;42.662;23.352;2022-08-01T01:34:53;5.65;;;5.00;;
41061;SDS011;26812;42.662;23.352;2022-08-01T01:37:20;5.30;;;4.90;;
41061;SDS011;26812;42.662;23.352;2022-08-01T01:39:48;7.05;;;5.18;;
41061;SDS011;26812;42.662;23.352;2022-08-01T01:42:16;5.18;;;4.78;;
41061;SDS011;26812;42.662;23.352;2022-08-01T01:44:42;6.32;;;5.38;;
41061;SDS011;26812;42.662;23.352;2022-08-01T01:47:09;4.57;;;4.15;;
41061;SDS011;26812;42.662;23.352;2022-08-01T01:49:37;7.70;;;4.40;;
41061;SDS011;26812;42.662;23.352;2022-08-01T01:52:04;4.38;;;3.92;;
41061;SDS011;26812;42.662;23.352;2022-08-01T01:54:38;3.90;;;3.50;;
41061;SDS011;26812;42.662;23.352;2022-08-01T01:57:07;3.90;;;3.60;;
41061;SDS011;26812;42.662;23.352;2022-08-01T01:59:36;4.15;;;3.80;;
41061;SDS011;26812;42.662;23.352;2022-08-01T02:02:04;3.97;;;3.58;;
41061;SDS011;26812;42.662;23.352;2022-08-01T02:04:32;7.20;;;3.35;;
41061;SDS011;26812;42.662;23.352;2022-08-01T02:07:00;3.15;;;2.90;;
41061;SDS011;26812;42.662;23.352;2022-08-01T02:09:27;3.53;;;2.50;;
41061;SDS011;26812;42.662;23.352;2022-08-01T02:11:54;3.20;;;2.40;;
41061;SDS011;26812;42.662;23.352;2022-08-01T02:14:22;4.28;;;2.95;;
41061;SDS011;26812;42.662;23.352;2022-08-01T02:16:49;3.45;;;2.70;;
41061;SDS011;26812;42.662;23.352;2022-08-01T02:19:19;2.53;;;2.33;;
41061;SDS011;26812;42.662;23.352;2022-08-01T02:21:52;2.85;;;2.35;;
41061;SDS011;26812;42.662;23.352;2022-08-01T02:27:05;2.78;;;2.03;;
41061;SDS011;26812;42.662;23.352;2022-08-01T02:29:38;2.40;;;2.10;;
41061;SDS011;26812;42.662;23.352;2022-08-01T02:32:08;2.17;;;2.08;;
41061;SDS011;26812;42.662;23.352;2022-08-01T02:34:39;2.83;;;2.60;;
41061;SDS011;26812;42.662;23.352;2022-08-01T02:37:07;3.03;;;2.50;;
41061;SDS011;26812;42.662;23.352;2022-08-01T02:39:35;2.63;;;2.40;;
41061;SDS011;26812;42.662;23.352;2022-08-01T02:42:02;5.07;;;2.38;;
41061;SDS011;26812;42.662;23.352;2022-08-01T02:44:33;3.53;;;2.70;;
41061;SDS011;26812;42.662;23.352;2022-08-01T02:47:02;2.92;;;2.70;;
41061;SDS011;26812;42.662;23.352;2022-08-01T02:49:31;3.17;;;2.97;;
41061;SDS011;26812;42.662;23.352;2022-08-01T02:52:07;3.55;;;2.90;;
41061;SDS011;26812;42.662;23.352;2022-08-01T02:54:34;3.58;;;3.28;;
41061;SDS011;26812;42.662;23.352;2022-08-01T02:57:02;3.10;;;2.80;;
41061;SDS011;26812;42.662;23.352;2022-08-01T02:59:29;3.53;;;3.22;;
41061;SDS011;26812;42.662;23.352;2022-08-01T03:01:57;2.95;;;2.65;;
41061;SDS011;26812;42.662;23.352;2022-08-01T03:04:25;4.28;;;3.10;;
41061;SDS011;26812;42.662;23.352;2022-08-01T03:06:54;6.75;;;3.53;;
41061;SDS011;26812;42.662;23.352;2022-08-01T03:09:23;3.45;;;3.17;;
41061;SDS011;26812;42.662;23.352;2022-08-01T03:11:51;4.38;;;3.30;;
41061;SDS011;26812;42.662;23.352;2022-08-01T03:14:17;4.22;;;3.28;;
41061;SDS011;26812;42.662;23.352;2022-08-01T03:16:46;3.55;;;3.25;;
41061;SDS011;26812;42.662;23.352;2022-08-01T03:19:13;4.22;;;3.33;;
41061;SDS011;26812;42.662;23.352;2022-08-01T03:21:40;4.85;;;3.10;;
41061;SDS011;26812;42.662;23.352;2022-08-01T03:24:08;3.42;;;3.13;;
41061;SDS011;26812;42.662;23.352;2022-08-01T03:26:36;3.50;;;3.20;;
41061;SDS011;26812;42.662;23.352;2022-08-01T03:29:06;3.65;;;3.30;;
41061;SDS011;26812;42.662;23.352;2022-08-01T03:31:37;4.05;;;3.45;;
41061;SDS011;26812;42.662;23.352;2022-08-01T03:34:03;3.90;;;3.60;;
41061;SDS011;26812;42.662;23.352;2022-08-01T03:36:29;4.03;;;3.63;;
41061;SDS011;26812;42.662;23.352;2022-08-01T03:38:58;5.93;;;3.47;;
41061;SDS011;26812;42.662;23.352;2022-08-01T03:41:27;4.25;;;3.85;;
41061;SDS011;26812;42.662;23.352;2022-08-01T03:44:03;5.85;;;4.00;;
41061;SDS011;26812;42.662;23.352;2022-08-01T03:46:33;4.45;;;3.90;;
41061;SDS011;26812;42.662;23.352;2022-08-01T03:49:06;5.90;;;3.40;;
41061;SDS011;26812;42.662;23.352;2022-08-01T03:51:35;3.67;;;3.38;;
41061;SDS011;26812;42.662;23.352;2022-08-01T03:54:03;4.72;;;4.30;;
41061;SDS011;26812;42.662;23.352;2022-08-01T03:56:30;4.97;;;4.57;;
41061;SDS011;26812;42.662;23.352;2022-08-01T03:58:58;5.05;;;4.55;;
41061;SDS011;26812;42.662;23.352;2022-08-01T04:01:26;7.35;;;4.72;;
41061;SDS011;26812;42.662;23.352;2022-08-01T04:03:54;4.60;;;4.05;;
41061;SDS011;26812;42.662;23.352;2022-08-01T04:06:20;5.28;;;4.25;;
41061;SDS011;26812;42.662;23.352;2022-08-01T04:08:45;4.38;;;3.97;;
41061;SDS011;26812;42.662;23.352;2022-08-01T04:11:20;4.10;;;3.80;;
41061;SDS011;26812;42.662;23.352;2022-08-01T04:13:46;4.05;;;3.75;;
41061;SDS011;26812;42.662;23.352;2022-08-01T04:16:13;6.25;;;3.80;;
41061;SDS011;26812;42.662;23.352;2022-08-01T04:18:38;4.65;;;4.25;;
41061;SDS011;26812;42.662;23.352;2022-08-01T04:21:04;4.63;;;4.22;;
41061;SDS011;26812;42.662;23.352;2022-08-01T04:23:29;4.05;;;3.75;;
41061;SDS011;26812;42.662;23.352;2022-08-01T04:25:56;4.72;;;4.32;;
41061;SDS011;26812;42.662;23.352;2022-08-01T04:28:24;5.10;;;4.47;;
41061;SDS011;26812;42.662;23.352;2022-08-01T04:30:51;4.82;;;4.40;;
41061;SDS011;26812;42.662;23.352;2022-08-01T04:33:19;5.00;;;4.35;;
41061;SDS011;26812;42.662;23.352;2022-08-01T04:35:45;5.30;;;4.80;;
41061;SDS011;26812;42.662;23.352;2022-08-01T04:38:13;7.20;;;4.75;;
41061;SDS011;26812;42.662;23.352;2022-08-01T04:40:42;6.07;;;4.50;;
41061;SDS011;26812;42.662;23.352;2022-08-01T04:43:12;5.18;;;4.75;;
41061;SDS011;26812;42.662;23.352;2022-08-01T04:45:38;5.97;;;4.50;;
41061;SDS011;26812;42.662;23.352;2022-08-01T04:48:04;4.88;;;4.35;;
41061;SDS011;26812;42.662;23.352;2022-08-01T04:50:34;6.72;;;4.85;;
41061;SDS011;26812;42.662;23.352;2022-08-01T04:53:00;6.00;;;4.65;;
41061;SDS011;26812;42.662;23.352;2022-08-01T04:55:28;7.43;;;4.97;;
41061;SDS011;26812;42.662;23.352;2022-08-01T04:57:53;4.80;;;4.13;;
41061;SDS011;26812;42.662;23.352;2022-08-01T05:00:19;4.63;;;4.22;;
41061;SDS011;26812;42.662;23.352;2022-08-01T05:02:44;7.95;;;4.05;;
41061;SDS011;26812;42.662;23.352;2022-08-01T05:05:10;10.43;;;4.47;;
41061;SDS011;26812;42.662;23.352;2022-08-01T05:07:35;5.30;;;4.50;;
41061;SDS011;26812;42.662;23.352;2022-08-01T05:10:02;5.60;;;4.60;;
41061;SDS011;26812;42.662;23.352;2022-08-01T05:12:29;6.88;;;4.80;;
41061;SDS011;26812;42.662;23.352;2022-08-01T05:14:54;7.55;;;4.40;;
41061;SDS011;26812;42.662;23.352;2022-08-01T05:17:20;5.88;;;4.93;;
41061;SDS011;26812;42.662;23.352;2022-08-01T05:19:46;6.38;;;4.80;;
41061;SDS011;26812;42.662;23.352;2022-08-01T05:22:11;8.35;;;5.30;;
41061;SDS011;26812;42.662;23.352;2022-08-01T05:24:38;5.57;;;4.55;;
41061;SDS011;26812;42.662;23.352;2022-08-01T05:27:04;6.30;;;4.50;;
41061;SDS011;26812;42.662;23.352;2022-08-01T05:29:31;7.40;;;4.68;;
41061;SDS011;26812;42.662;23.352;2022-08-01T05:31:57;5.95;;;4.55;;
41061;SDS011;26812;42.662;23.352;2022-08-01T05:34:24;8.60;;;4.50;;
41061;SDS011;26812;42.662;23.352;2022-08-01T05:36:49;7.05;;;3.92;;
41061;SDS011;26812;42.662;23.352;2022-08-01T05:39:15;7.07;;;3.88;;
41061;SDS011;26812;42.662;23.352;2022-08-01T05:41:41;7.43;;;4.10;;
41061;SDS011;26812;42.662;23.352;2022-08-01T05:44:06;4.63;;;4.10;;
41061;SDS011;26812;42.662;23.352;2022-08-01T05:46:32;5.25;;;3.47;;
41061;SDS011;26812;42.662;23.352;2022-08-01T05:48:59;4.88;;;3.97;;
41061;SDS011;26812;42.662;23.352;2022-08-01T05:51:25;5.35;;;3.67;;
41061;SDS011;26812;42.662;23.352;2022-08-01T05:53:51;6.05;;;3.50;;
41061;SDS011;26812;42.662;23.352;2022-08-01T05:56:17;5.45;;;3.85;;
41061;SDS011;26812;42.662;23.352;2022-08-01T05:58:43;4.13;;;3.00;;
41061;SDS011;26812;42.662;23.352;2022-08-01T06:01:08;4.63;;;3.30;;
41061;SDS011;26812;42.662;23.352;2022-08-01T06:03:34;5.20;;;3.58;;
41061;SDS011;26812;42.662;23.352;2022-08-01T06:06:00;5.68;;;3.03;;
41061;SDS011;26812;42.662;23.352;2022-08-01T06:08:26;4.03;;;3.60;;
41061;SDS011;26812;42.662;23.352;2022-08-01T06:10:52;6.13;;;3.40;;
41061;SDS011;26812;42.662;23.352;2022-08-01T06:13:17;3.35;;;3.03;;
41061;SDS011;26812;42.662;23.352;2022-08-01T06:15:44;4.25;;;2.80;;
41061;SDS011;26812;42.662;23.352;2022-08-01T06:18:10;2.88;;;2.67;;
41061;SDS011;26812;42.662;23.352;2022-08-01T06:20:36;6.65;;;2.65;;
41061;SDS011;26812;42.662;23.352;2022-08-01T06:23:02;2.80;;;2.60;;
41061;SDS011;26812;42.662;23.352;2022-08-01T06:25:27;6.38;;;3.13;;
41061;SDS011;26812;42.662;23.352;2022-08-01T06:27:53;3.90;;;2.72;;
41061;SDS011;26812;42.662;23.352;2022-08-01T06:30:18;5.80;;;2.47;;
41061;SDS011;26812;42.662;23.352;2022-08-01T06:32:43;3.92;;;2.50;;
41061;SDS011;26812;42.662;23.352;2022-08-01T06:35:09;4.93;;;2.67;;
41061;SDS011;26812;42.662;23.352;2022-08-01T06:37:34;2.85;;;2.05;;
41061;SDS011;26812;42.662;23.352;2022-08-01T06:40:03;2.45;;;2.25;;
41061;SDS011;26812;42.662;23.352;2022-08-01T06:42:29;2.92;;;2.03;;
41061;SDS011;26812;42.662;23.352;2022-08-01T06:45:00;3.35;;;2.53;;
41061;SDS011;26812;42.662;23.352;2022-08-01T06:47:26;2.63;;;2.42;;
41061;SDS011;26812;42.662;23.352;2022-08-01T06:49:52;3.78;;;2.65;;
41061;SDS011;26812;42.662;23.352;2022-08-01T06:52:17;3.22;;;2.28;;
41061;SDS011;26812;42.662;23.352;2022-08-01T06:54:43;5.03;;;2.35;;
41061;SDS011;26812;42.662;23.352;2022-08-01T06:57:08;5.60;;;2.95;;
41061;SDS011;26812;42.662;23.352;2022-08-01T06:59:33;4.82;;;2.50;;
41061;SDS011;26812;42.662;23.352;2022-08-01T07:01:59;3.85;;;2.80;;
41061;SDS011;26812;42.662;23.352;2022-08-01T07:04:26;4.30;;;2.47;;
41061;SDS011;26812;42.662;23.352;2022-08-01T07:06:51;3.75;;;2.28;;
41061;SDS011;26812;42.662;23.352;2022-08-01T07:09:17;2.63;;;2.40;;
41061;SDS011;26812;42.662;23.352;2022-08-01T07:11:42;2.63;;;2.38;;
41061;SDS011;26812;42.662;23.352;2022-08-01T07:14:08;3.00;;;2.55;;
41061;SDS011;26812;42.662;23.352;2022-08-01T07:16:33;3.05;;;2.80;;
41061;SDS011;26812;42.662;23.352;2022-08-01T07:18:59;4.35;;;2.42;;
41061;SDS011;26812;42.662;23.352;2022-08-01T07:21:24;4.75;;;2.97;;
41061;SDS011;26812;42.662;23.352;2022-08-01T07:23:50;4.68;;;2.90;;
41061;SDS011;26812;42.662;23.352;2022-08-01T07:26:19;2.88;;;2.47;;
41061;SDS011;26812;42.662;23.352;2022-08-01T07:28:48;4.88;;;2.63;;
41061;SDS011;26812;42.662;23.352;2022-08-01T07:31:16;5.03;;;2.35;;
41061;SDS011;26812;42.662;23.352;2022-08-01T07:33:48;3.13;;;2.33;;
41061;SDS011;26812;42.662;23.352;2022-08-01T07:36:17;3.45;;;3.00;;
41061;SDS011;26812;42.662;23.352;2022-08-01T07:38:51;3.42;;;2.60;;
41061;SDS011;26812;42.662;23.352;2022-08-01T07:41:17;3.58;;;2.50;;
41061;SDS011;26812;42.662;23.352;2022-08-01T07:43:42;6.50;;;2.72;;
41061;SDS011;26812;42.662;23.352;2022-08-01T07:46:07;2.45;;;2.25;;
41061;SDS011;26812;42.662;23.352;2022-08-01T07:48:33;2.50;;;2.22;;
41061;SDS011;26812;42.662;23.352;2022-08-01T07:50:58;2.42;;;2.22;;
41061;SDS011;26812;42.662;23.352;2022-08-01T07:53:24;4.70;;;3.05;;
41061;SDS011;26812;42.662;23.352;2022-08-01T07:55:49;3.00;;;2.78;;
41061;SDS011;26812;42.662;23.352;2022-08-01T07:58:18;2.90;;;2.47;;
41061;SDS011;26812;42.662;23.352;2022-08-01T08:00:43;2.60;;;2.13;;
41061;SDS011;26812;42.662;23.352;2022-08-01T08:03:09;2.95;;;2.65;;
41061;SDS011;26812;42.662;23.352;2022-08-01T08:05:35;4.55;;;2.40;;
41061;SDS011;26812;42.662;23.352;2022-08-01T08:08:07;4.00;;;2.75;;
41061;SDS011;26812;42.662;23.352;2022-08-01T08:10:33;3.13;;;2.60;;
41061;SDS011;26812;42.662;23.352;2022-08-01T08:12:59;4.38;;;2.72;;
41061;SDS011;26812;42.662;23.352;2022-08-01T08:15:25;3.15;;;2.03;;
41061;SDS011;26812;42.662;23.352;2022-08-01T08:17:51;2.85;;;2.00;;
41061;SDS011;26812;42.662;23.352;2022-08-01T08:20:16;2.95;;;2.33;;
41061;SDS011;26812;42.662;23.352;2022-08-01T08:22:41;3.10;;;2.28;;
41061;SDS011;26812;42.662;23.352;2022-08-01T08:25:07;4.50;;;2.30;;
41061;SDS011;26812;42.662;23.352;2022-08-01T08:27:33;2.67;;;2.33;;
41061;SDS011;26812;42.662;23.352;2022-08-01T08:30:00;3.13;;;2.83;;
41061;SDS011;26812;42.662;23.352;2022-08-01T08:32:25;2.85;;;2.30;;
41061;SDS011;26812;42.662;23.352;2022-08-01T08:34:50;3.17;;;2.50;;
41061;SDS011;26812;42.662;23.352;2022-08-01T08:37:16;3.22;;;2.42;;
41061;SDS011;26812;42.662;23.352;2022-08-01T08:39:42;2.67;;;2.35;;
41061;SDS011;26812;42.662;23.352;2022-08-01T08:42:09;4.38;;;2.90;;
41061;SDS011;26812;42.662;23.352;2022-08-01T08:44:36;7.75;;;2.63;;
41061;SDS011;26812;42.662;23.352;2022-08-01T08:47:01;3.65;;;2.50;;
41061;SDS011;26812;42.662;23.352;2022-08-01T08:49:30;2.40;;;2.20;;
41061;SDS011;26812;42.662;23.352;2022-08-01T08:51:57;3.47;;;2.33;;
41061;SDS011;26812;42.662;23.352;2022-08-01T08:54:24;3.28;;;2.40;;
41061;SDS011;26812;42.662;23.352;2022-08-01T08:56:53;2.60;;;2.22;;
41061;SDS011;26812;42.662;23.352;2022-08-01T08:59:19;2.35;;;2.15;;
41061;SDS011;26812;42.662;23.352;2022-08-01T09:01:46;2.22;;;1.75;;
41061;SDS011;26812;42.662;23.352;2022-08-01T09:04:12;2.55;;;2.35;;
41061;SDS011;26812;42.662;23.352;2022-08-01T09:06:38;5.13;;;2.40;;
41061;SDS011;26812;42.662;23.352;2022-08-01T09:09:05;3.80;;;2.30;;
41061;SDS011;26812;42.662;23.352;2022-08-01T09:11:31;5.03;;;2.17;;
41061;SDS011;26812;42.662;23.352;2022-08-01T09:14:17;3.13;;;2.30;;
41061;SDS011;26812;42.662;23.352;2022-08-01T09:19:25;2.30;;;2.00;;
41061;SDS011;26812;42.662;23.352;2022-08-01T09:22:01;6.53;;;2.50;;
41061;SDS011;26812;42.662;23.352;2022-08-01T09:24:28;2.78;;;2.15;;
41061;SDS011;26812;42.662;23.352;2022-08-01T09:26:55;3.65;;;2.38;;
41061;SDS011;26812;42.662;23.352;2022-08-01T09:29:22;2.20;;;2.10;;
41061;SDS011;26812;42.662;23.352;2022-08-01T09:31:49;3.78;;;2.03;;
41061;SDS011;26812;42.662;23.352;2022-08-01T09:34:16;4.20;;;2.03;;
41061;SDS011;26812;42.662;23.352;2022-08-01T09:36:49;2.65;;;2.05;;
41061;SDS011;26812;42.662;23.352;2022-08-01T09:39:23;2.22;;;2.00;;
41061;SDS011;26812;42.662;23.352;2022-08-01T09:41:57;3.55;;;2.00;;
41061;SDS011;26812;42.662;23.352;2022-08-01T09:44:37;2.30;;;1.88;;
41061;SDS011;26812;42.662;23.352;2022-08-01T09:47:04;1.73;;;1.63;;
41061;SDS011;26812;42.662;23.352;2022-08-01T09:49:34;3.15;;;2.30;;
41061;SDS011;26812;42.662;23.352;2022-08-01T09:52:12;2.53;;;2.10;;
41061;SDS011;26812;42.662;23.352;2022-08-01T09:54:43;2.55;;;2.00;;
41061;SDS011;26812;42.662;23.352;2022-08-01T09:57:17;2.28;;;2.08;;
41061;SDS011;26812;42.662;23.352;2022-08-01T09:59:45;1.98;;;1.88;;
41061;SDS011;26812;42.662;23.352;2022-08-01T10:02:13;2.70;;;2.20;;
41061;SDS011;26812;42.662;23.352;2022-08-01T10:04:49;2.40;;;2.20;;
41061;SDS011;26812;42.662;23.352;2022-08-01T10:07:17;2.33;;;2.13;;
41061;SDS011;26812;42.662;23.352;2022-08-01T10:09:43;2.50;;;2.30;;
41061;SDS011;26812;42.662;23.352;2022-08-01T10:12:10;2.72;;;2.40;;
41061;SDS011;26812;42.662;23.352;2022-08-01T10:14:37;2.55;;;2.30;;
41061;SDS011;26812;42.662;23.352;2022-08-01T10:17:03;2.38;;;2.17;;
41061;SDS011;26812;42.662;23.352;2022-08-01T10:19:32;2.88;;;2.47;;
41061;SDS011;26812;42.662;23.352;2022-08-01T10:22:00;2.30;;;2.10;;
41061;SDS011;26812;42.662;23.352;2022-08-01T10:24:27;2.60;;;2.40;;
41061;SDS011;26812;42.662;23.352;2022-08-01T10:26:58;3.42;;;2.10;;
41061;SDS011;26812;42.662;23.352;2022-08-01T10:29:29;3.15;;;2.10;;
41061;SDS011;26812;42.662;23.352;2022-08-01T10:32:05;2.10;;;2.00;;
41061;SDS011;26812;42.662;23.352;2022-08-01T10:34:31;2.30;;;2.10;;
41061;SDS011;26812;42.662;23.352;2022-08-01T10:36:58;2.28;;;2.08;;
41061;SDS011;26812;42.662;23.352;2022-08-01T10:39:25;3.10;;;2.47;;
41061;SDS011;26812;42.662;23.352;2022-08-01T10:41:53;3.60;;;2.40;;
41061;SDS011;26812;42.662;23.352;2022-08-01T10:44:20;2.67;;;1.92;;
41061;SDS011;26812;42.662;23.352;2022-08-01T10:46:47;2.50;;;2.30;;
41061;SDS011;26812;42.662;23.352;2022-08-01T10:49:16;4.45;;;2.38;;
41061;SDS011;26812;42.662;23.352;2022-08-01T10:51:45;2.80;;;2.60;;
41061;SDS011;26812;42.662;23.352;2022-08-01T10:54:10;2.22;;;1.90;;
41061;SDS011;26812;42.662;23.352;2022-08-01T10:56:48;2.05;;;1.85;;
41061;SDS011;26812;42.662;23.352;2022-08-01T10:59:20;2.17;;;1.98;;
41061;SDS011;26812;42.662;23.352;2022-08-01T11:04:22;1.85;;;1.75;;
41061;SDS011;26812;42.662;23.352;2022-08-01T11:07:03;2.17;;;1.90;;
41061;SDS011;26812;42.662;23.352;2022-08-01T11:09:31;2.05;;;1.95;;
41061;SDS011;26812;42.662;23.352;2022-08-01T11:12:07;2.42;;;2.22;;
41061;SDS011;26812;42.662;23.352;2022-08-01T11:15:15;2.47;;;2.13;;
41061;SDS011;26812;42.662;23.352;2022-08-01T11:17:35;3.55;;;2.20;;
41061;SDS011;26812;42.662;23.352;2022-08-01T11:33:08;3.45;;;1.90;;
41061;SDS011;26812;42.662;23.352;2022-08-01T11:35:34;2.72;;;1.75;;
41061;SDS011;26812;42.662;23.352;2022-08-01T11:41:08;4.85;;;2.15;;
41061;SDS011;26812;42.662;23.352;2022-08-01T11:43:34;2.95;;;2.00;;
41061;SDS011;26812;42.662;23.352;2022-08-01T11:45:59;2.00;;;1.90;;
41061;SDS011;26812;42.662;23.352;2022-08-01T11:48:25;2.85;;;2.20;;
41061;SDS011;26812;42.662;23.352;2022-08-01T11:50:53;2.40;;;2.20;;
41061;SDS011;26812;42.662;23.352;2022-08-01T11:53:20;2.42;;;2.22;;
41061;SDS011;26812;42.662;23.352;2022-08-01T11:55:46;5.75;;;2.20;;
41061;SDS011;26812;42.662;23.352;2022-08-01T11:58:14;2.50;;;2.20;;
41061;SDS011;26812;42.662;23.352;2022-08-01T12:00:40;2.38;;;2.17;;
41061;SDS011;26812;42.662;23.352;2022-08-01T12:03:06;2.47;;;2.25;;
41061;SDS011;26812;42.662;23.352;2022-08-01T12:05:34;2.90;;;2.08;;
41061;SDS011;26812;42.662;23.352;2022-08-01T12:08:02;2.50;;;2.28;;
41061;SDS011;26812;42.662;23.352;2022-08-01T12:10:34;2.40;;;2.20;;
41061;SDS011;26812;42.662;23.352;2022-08-01T12:13:03;2.47;;;2.28;;
41061;SDS011;26812;42.662;23.352;2022-08-01T12:15:31;2.33;;;2.13;;
41061;SDS011;26812;42.662;23.352;2022-08-01T12:18:01;2.30;;;2.10;;
41061;SDS011;26812;42.662;23.352;2022-08-01T12:20:30;4.53;;;2.90;;
41061;SDS011;26812;42.662;23.352;2022-08-01T12:22:59;2.65;;;2.45;;
41061;SDS011;26812;42.662;23.352;2022-08-01T12:25:26;4.35;;;2.78;;
41061;SDS011;26812;42.662;23.352;2022-08-01T12:27:52;2.70;;;2.50;;
41061;SDS011;26812;42.662;23.352;2022-08-01T12:30:19;2.90;;;2.65;;
41061;SDS011;26812;42.662;23.352;2022-08-01T12:32:54;4.03;;;2.42;;
41061;SDS011;26812;42.662;23.352;2022-08-01T12:35:26;3.70;;;2.60;;
41061;SDS011;26812;42.662;23.352;2022-08-01T12:37:54;3.33;;;2.65;;
41061;SDS011;26812;42.662;23.352;2022-08-01T12:40:22;3.05;;;2.55;;
41061;SDS011;26812;42.662;23.352;2022-08-01T12:42:48;3.70;;;3.40;;
41061;SDS011;26812;42.662;23.352;2022-08-01T12:45:19;4.15;;;2.65;;
41061;SDS011;26812;42.662;23.352;2022-08-01T12:47:48;4.30;;;2.67;;
41061;SDS011;26812;42.662;23.352;2022-08-01T12:50:19;2.88;;;2.65;;
41061;SDS011;26812;42.662;23.352;2022-08-01T12:52:46;3.38;;;2.58;;
41061;SDS011;26812;42.662;23.352;2022-08-01T12:55:19;2.92;;;2.67;;
41061;SDS011;26812;42.662;23.352;2022-08-01T12:57:46;2.80;;;2.60;;
41061;SDS011;26812;42.662;23.352;2022-08-01T13:00:23;3.13;;;2.92;;
41061;SDS011;26812;42.662;23.352;2022-08-01T13:02:50;3.33;;;3.13;;
41061;SDS011;26812;42.662;23.352;2022-08-01T13:05:26;3.70;;;2.78;;
41061;SDS011;26812;42.662;23.352;2022-08-01T13:07:52;4.03;;;3.15;;
41061;SDS011;26812;42.662;23.352;2022-08-01T13:10:25;4.03;;;2.60;;
41061;SDS011;26812;42.662;23.352;2022-08-01T13:12:54;3.55;;;2.80;;
41061;SDS011;26812;42.662;23.352;2022-08-01T13:17:56;5.18;;;3.50;;
41061;SDS011;26812;42.662;23.352;2022-08-01T13:22:51;3.85;;;2.88;;
41061;SDS011;26812;42.662;23.352;2022-08-01T13:25:17;3.42;;;2.92;;
41061;SDS011;26812;42.662;23.352;2022-08-01T13:27:43;3.10;;;2.90;;
41061;SDS011;26812;42.662;23.352;2022-08-01T13:32:40;3.25;;;2.70;;
41061;SDS011;26812;42.662;23.352;2022-08-01T13:35:08;2.42;;;2.20;;
41061;SDS011;26812;42.662;23.352;2022-08-01T13:37:35;2.67;;;2.47;;
41061;SDS011;26812;42.662;23.352;2022-08-01T13:40:01;3.28;;;2.63;;
41061;SDS011;26812;42.662;23.352;2022-08-01T13:42:26;2.92;;;2.67;;
41061;SDS011;26812;42.662;23.352;2022-08-01T13:44:54;2.90;;;2.70;;
41061;SDS011;26812;42.662;23.352;2022-08-01T13:47:19;2.78;;;2.58;;
41061;SDS011;26812;42.662;23.352;2022-08-01T13:49:45;3.35;;;2.80;;
41061;SDS011;26812;42.662;23.352;2022-08-01T13:52:10;3.10;;;2.90;;
41061;SDS011;26812;42.662;23.352;2022-08-01T13:54:35;3.47;;;2.85;;
41061;SDS011;26812;42.662;23.352;2022-08-01T13:57:01;3.95;;;2.97;;
41061;SDS011;26812;42.662;23.352;2022-08-01T13:59:27;3.22;;;2.85;;
41061;SDS011;26812;42.662;23.352;2022-08-01T14:01:52;4.40;;;2.65;;
41061;SDS011;26812;42.662;23.352;2022-08-01T14:04:18;2.83;;;2.63;;
41061;SDS011;26812;42.662;23.352;2022-08-01T14:06:44;3.63;;;2.88;;
41061;SDS011;26812;42.662;23.352;2022-08-01T14:09:09;3.30;;;2.75;;
41061;SDS011;26812;42.662;23.352;2022-08-01T14:11:35;2.55;;;2.42;;
41061;SDS011;26812;42.662;23.352;2022-08-01T14:14:00;2.90;;;2.72;;
41061;SDS011;26812;42.662;23.352;2022-08-01T14:16:25;2.60;;;2.40;;
41061;SDS011;26812;42.662;23.352;2022-08-01T14:18:51;3.28;;;2.85;;
41061;SDS011;26812;42.662;23.352;2022-08-01T14:21:16;2.80;;;2.60;;
41061;SDS011;26812;42.662;23.352;2022-08-01T14:23:42;2.95;;;2.75;;
41061;SDS011;26812;42.662;23.352;2022-08-01T14:26:11;3.55;;;2.53;;
41061;SDS011;26812;42.662;23.352;2022-08-01T14:28:37;2.90;;;2.22;;
41061;SDS011;26812;42.662;23.352;2022-08-01T14:31:03;3.92;;;2.50;;
41061;SDS011;26812;42.662;23.352;2022-08-01T14:33:31;2.83;;;2.55;;
41061;SDS011;26812;42.662;23.352;2022-08-01T14:35:57;7.97;;;2.63;;
41061;SDS011;26812;42.662;23.352;2022-08-01T14:38:22;2.58;;;2.47;;
41061;SDS011;26812;42.662;23.352;2022-08-01T14:40:48;2.22;;;2.10;;
41061;SDS011;26812;42.662;23.352;2022-08-01T14:43:16;4.90;;;2.60;;
41061;SDS011;26812;42.662;23.352;2022-08-01T14:45:45;3.17;;;2.28;;
41061;SDS011;26812;42.662;23.352;2022-08-01T14:48:14;2.83;;;2.63;;
41061;SDS011;26812;42.662;23.352;2022-08-01T14:50:40;2.63;;;2.33;;
41061;SDS011;26812;42.662;23.352;2022-08-01T14:53:05;3.08;;;2.88;;
41061;SDS011;26812;42.662;23.352;2022-08-01T14:55:31;2.90;;;2.60;;
41061;SDS011;26812;42.662;23.352;2022-08-01T14:57:56;4.53;;;2.75;;
41061;SDS011;26812;42.662;23.352;2022-08-01T15:00:22;2.58;;;2.40;;
41061;SDS011;26812;42.662;23.352;2022-08-01T15:02:47;2.88;;;2.67;;
41061;SDS011;26812;42.662;23.352;2022-08-01T15:05:12;2.55;;;2.35;;
41061;SDS011;26812;42.662;23.352;2022-08-01T15:07:38;2.78;;;2.20;;
41061;SDS011;26812;42.662;23.352;2022-08-01T15:10:04;2.72;;;2.53;;
41061;SDS011;26812;42.662;23.352;2022-08-01T15:12:30;4.05;;;2.30;;
41061;SDS011;26812;42.662;23.352;2022-08-01T15:14:55;2.75;;;2.33;;
41061;SDS011;26812;42.662;23.352;2022-08-01T15:17:22;2.70;;;2.50;;